createdAt,value
2019-02-06T00:02:18.112Z,65.29
2019-02-06T00:04:46.869Z,65.40
2019-02-06T00:07:15.789Z,65.57
2019-02-06T00:09:44.551Z,65.33
2019-02-06T00:12:13.319Z,65.33
2019-02-06T00:14:42.353Z,65.06
2019-02-06T00:17:11.142Z,65.23
2019-02-06T00:19:39.871Z,65.58
2019-02-06T00:22:08.670Z,65.99
2019-02-06T00:24:37.471Z,65.98
2019-02-06T00:27:06.199Z,65.94
2019-02-06T00:29:34.996Z,65.75
2019-02-06T00:32:04.512Z,65.25
2019-02-06T00:34:33.269Z,65.83
2019-02-06T00:37:02.070Z,66.04
2019-02-06T00:39:30.792Z,66.25
2019-02-06T00:41:59.520Z,66.51
2019-02-06T00:44:28.230Z,66.18
2019-02-06T00:46:57.030Z,65.86
2019-02-06T00:49:37.149Z,65.71
2019-02-06T00:52:05.950Z,65.60
2019-02-06T00:54:34.752Z,65.60
2019-02-06T00:57:03.594Z,65.68
2019-02-06T00:59:32.670Z,65.08
2019-02-06T01:02:01.471Z,65.03
2019-02-06T01:04:30.231Z,64.81
2019-02-06T01:06:59.030Z,64.91
2019-02-06T01:09:27.777Z,64.96
2019-02-06T01:11:56.513Z,64.80
2019-02-06T01:14:25.270Z,64.75
2019-02-06T01:16:54.029Z,64.95
2019-02-06T01:19:22.791Z,65.15
2019-02-06T01:21:51.512Z,65.25
2019-02-06T01:24:20.271Z,65.09
2019-02-06T01:26:48.950Z,64.52
2019-02-06T01:29:17.713Z,64.66
2019-02-06T01:31:46.885Z,64.69
2019-02-06T01:34:15.631Z,64.48
2019-02-06T01:36:44.349Z,64.39
2019-02-06T01:39:13.590Z,64.44
2019-02-06T01:41:42.349Z,64.48
2019-02-06T01:44:11.111Z,64.36
2019-02-06T01:46:39.991Z,64.37
2019-02-06T01:49:08.951Z,64.32
2019-02-06T01:51:37.713Z,64.24
2019-02-06T01:54:06.470Z,64.53
2019-02-06T01:56:35.273Z,64.33
2019-02-06T01:59:04.070Z,64.53
2019-02-06T02:01:32.871Z,64.60
2019-02-06T02:04:01.750Z,64.47
2019-02-06T02:06:30.510Z,64.38
2019-02-06T02:09:01.071Z,64.08
2019-02-06T02:11:29.909Z,63.74
2019-02-06T02:13:58.672Z,64.19
2019-02-06T02:16:27.391Z,64.09
2019-02-06T02:18:56.109Z,64.08
2019-02-06T02:21:24.989Z,64.08
2019-02-06T02:23:53.754Z,64.21
2019-02-06T02:26:22.471Z,64.04
2019-02-06T02:28:51.309Z,64.20
2019-02-06T02:31:20.069Z,64.17
2019-02-06T02:33:48.830Z,64.14
2019-02-06T02:36:17.990Z,64.43
2019-02-06T02:38:46.713Z,64.53
2019-02-06T02:41:15.440Z,64.70
2019-02-06T02:43:44.189Z,64.28
2019-02-06T02:46:12.951Z,64.36
2019-02-06T02:48:41.672Z,64.46
2019-02-06T02:51:10.710Z,64.78
2019-02-06T02:53:39.511Z,64.64
2019-02-06T02:56:08.270Z,64.79
2019-02-06T02:58:37.001Z,64.94
2019-02-06T03:01:16.157Z,65.27
2019-02-06T03:03:46.472Z,64.88
2019-02-06T03:06:27.258Z,65.53
2019-02-06T03:08:45.742Z,65.51
2019-02-06T03:11:14.434Z,64.80
2019-02-06T03:13:43.233Z,64.85
2019-02-06T03:16:11.990Z,64.90
2019-02-06T03:18:40.831Z,64.74
2019-02-06T03:21:09.791Z,65.04
2019-02-06T03:23:38.680Z,64.90
2019-02-06T03:26:07.430Z,65.07
2019-02-06T03:28:36.192Z,64.83
2019-02-06T03:31:04.994Z,64.55
2019-02-06T03:33:33.902Z,64.75
2019-02-06T03:36:03.031Z,64.31
2019-02-06T03:38:31.740Z,64.36
2019-02-06T03:41:00.595Z,64.49
2019-02-06T03:43:29.232Z,64.79
2019-02-06T03:45:57.913Z,65.02
2019-02-06T03:48:26.543Z,64.79
2019-02-06T03:50:55.218Z,64.86
2019-02-06T03:53:24.235Z,64.65
2019-02-06T03:55:52.892Z,64.63
2019-02-06T03:58:21.548Z,64.64
2019-02-06T04:00:50.343Z,64.36
2019-02-06T04:03:18.971Z,64.13
2019-02-06T04:05:47.627Z,64.16
2019-02-06T04:08:16.419Z,63.89
2019-02-06T04:10:45.146Z,64.00
2019-02-06T04:13:13.893Z,63.81
2019-02-06T04:15:42.736Z,64.53
2019-02-06T04:18:11.418Z,64.46
2019-02-06T04:20:40.080Z,64.56
2019-02-06T04:23:08.831Z,64.96
2019-02-06T04:25:37.532Z,64.62
2019-02-06T04:28:06.220Z,64.39
2019-02-06T04:30:34.866Z,64.37
2019-02-06T04:33:03.581Z,64.91
2019-02-06T04:35:32.223Z,64.53
2019-02-06T04:38:00.857Z,64.37
2019-02-06T04:40:29.823Z,64.41
2019-02-06T04:42:58.474Z,64.67
2019-02-06T04:45:27.463Z,64.60
2019-02-06T04:47:56.166Z,64.30
2019-02-06T04:50:24.848Z,64.10
2019-02-06T04:52:53.486Z,63.92
2019-02-06T04:55:22.195Z,63.93
2019-02-06T04:57:51.070Z,64.32
2019-02-06T05:00:27.178Z,64.28
2019-02-06T05:02:55.894Z,64.47
2019-02-06T05:05:24.528Z,64.56
2019-02-06T05:07:53.198Z,64.94
2019-02-06T05:10:21.908Z,64.56
2019-02-06T05:12:50.553Z,64.59
2019-02-06T05:15:19.213Z,64.40
2019-02-06T05:17:47.892Z,64.63
2019-02-06T05:20:32.031Z,64.58
2019-02-06T05:23:00.663Z,64.45
2019-02-06T05:25:29.581Z,64.10
2019-02-06T05:27:58.258Z,64.37
2019-02-06T05:30:26.935Z,64.27
2019-02-06T05:32:55.688Z,64.00
2019-02-06T05:35:24.330Z,64.00
2019-02-06T05:37:53.004Z,63.94
2019-02-06T05:40:21.726Z,64.08
2019-02-06T05:42:52.590Z,64.31
2019-02-06T05:45:20.790Z,64.10
2019-02-06T05:47:49.570Z,63.50
2019-02-06T05:50:19.120Z,63.42
2019-02-06T05:52:47.763Z,63.75
2019-02-06T05:55:17.549Z,63.81
2019-02-06T05:57:46.762Z,63.47
2019-02-06T06:00:25.411Z,63.82
2019-02-06T06:02:54.095Z,64.01
2019-02-06T06:05:22.738Z,63.69
2019-02-06T06:07:51.420Z,63.72
2019-02-06T06:10:20.245Z,64.05
2019-02-06T06:12:48.919Z,63.99
2019-02-06T06:15:19.573Z,63.91
2019-02-06T06:17:48.343Z,63.94
2019-02-06T06:20:20.386Z,63.70
2019-02-06T06:22:49.104Z,63.32
2019-02-06T06:25:18.949Z,63.58
2019-02-06T06:27:48.035Z,63.76
2019-02-06T06:30:18.772Z,63.64
2019-02-06T06:32:47.413Z,63.99
2019-02-06T06:35:16.134Z,64.17
2019-02-06T06:37:57.208Z,63.65
2019-02-06T06:40:20.931Z,63.46
2019-02-06T06:42:49.588Z,63.48
2019-02-06T06:45:23.994Z,63.33
2019-02-06T06:47:52.739Z,63.95
2019-02-06T06:50:23.493Z,64.08
2019-02-06T06:52:52.183Z,64.26
2019-02-06T06:55:20.852Z,63.76
2019-02-06T06:57:49.567Z,63.71
2019-02-06T07:00:29.133Z,64.10
2019-02-06T07:02:59.238Z,64.32
2019-02-06T07:05:27.886Z,64.64
2019-02-06T07:07:56.592Z,64.65
2019-02-06T07:10:26.948Z,64.33
2019-02-06T07:12:55.983Z,64.23
2019-02-06T07:15:33.027Z,64.48
2019-02-06T07:18:01.665Z,64.66
2019-02-06T07:20:30.338Z,64.09
2019-02-06T07:22:59.359Z,63.92
2019-02-06T07:25:28.038Z,63.95
2019-02-06T07:27:56.688Z,63.38
2019-02-06T07:30:27.566Z,63.25
2019-02-06T07:32:56.288Z,63.70
2019-02-06T07:35:24.999Z,63.09
2019-02-06T07:37:53.723Z,63.44
2019-02-06T07:40:22.786Z,63.65
2019-02-06T07:42:51.437Z,63.51
2019-02-06T07:45:20.603Z,62.62
2019-02-06T07:47:49.257Z,63.17
2019-02-06T07:50:20.500Z,62.96
2019-02-06T07:52:49.138Z,62.89
2019-02-06T07:55:18.196Z,62.83
2019-02-06T07:57:46.847Z,63.09
2019-02-06T08:00:15.533Z,62.59
2019-02-06T08:02:44.192Z,62.61
2019-02-06T08:05:18.196Z,62.80
2019-02-06T08:07:46.831Z,62.05
2019-02-06T08:10:27.233Z,61.69
2019-02-06T08:12:55.863Z,61.69
2019-02-06T08:15:24.561Z,61.50
2019-02-06T08:17:53.511Z,61.47
2019-02-06T08:20:23.178Z,61.51
2019-02-06T08:22:52.232Z,60.61
2019-02-06T08:25:24.783Z,60.23
2019-02-06T08:27:53.426Z,60.33
2019-02-06T08:30:27.393Z,60.42
2019-02-06T08:32:56.041Z,60.56
2019-02-06T08:35:24.726Z,60.19
2019-02-06T08:37:53.649Z,59.67
2019-02-06T08:40:25.693Z,59.78
2019-02-06T08:42:54.336Z,59.04
2019-02-06T08:45:23.043Z,58.90
2019-02-06T08:47:51.908Z,58.72
2019-02-06T08:50:21.897Z,58.71
2019-02-06T08:52:50.960Z,58.70
2019-02-06T08:55:24.702Z,58.34
2019-02-06T08:57:52.783Z,58.50
2019-02-06T09:00:30.325Z,57.96
2019-02-06T09:02:58.966Z,57.89
2019-02-06T09:05:28.162Z,57.50
2019-02-06T09:07:56.897Z,57.78
2019-02-06T09:10:32.183Z,57.43
2019-02-06T09:13:01.009Z,57.18
2019-02-06T09:15:29.697Z,56.85
2019-02-06T09:17:58.387Z,57.01
2019-02-06T09:20:29.331Z,56.37
2019-02-06T09:22:58.068Z,54.88
2019-02-06T09:25:28.373Z,50.90
2019-02-06T09:27:57.400Z,49.07
2019-02-06T09:30:27.633Z,48.98
2019-02-06T09:32:56.792Z,50.06
2019-02-06T09:35:25.833Z,55.38
2019-02-06T09:37:54.515Z,52.34
2019-02-06T09:40:25.355Z,50.68
2019-02-06T09:42:54.214Z,51.03
2019-02-06T09:45:22.952Z,51.64
2019-02-06T09:47:51.715Z,51.59
2019-02-06T09:50:22.859Z,51.69
2019-02-06T09:52:51.652Z,51.53
2019-02-06T09:55:20.374Z,51.00
2019-02-06T09:57:49.012Z,50.07
2019-02-06T10:00:26.393Z,49.85
2019-02-06T10:02:55.120Z,51.11
2019-02-06T10:05:24.276Z,50.38
2019-02-06T10:07:52.932Z,49.61
2019-02-06T10:10:24.310Z,49.58
2019-02-06T10:12:52.952Z,49.25
2019-02-06T10:15:24.770Z,48.74
2019-02-06T10:17:53.930Z,48.76
2019-02-06T10:20:25.990Z,48.61
2019-02-06T10:22:54.760Z,47.75
2019-02-06T10:25:23.471Z,47.85
2019-02-06T10:27:52.154Z,47.53
2019-02-06T10:30:23.914Z,47.09
2019-02-06T10:32:52.712Z,46.50
2019-02-06T10:35:21.355Z,47.37
2019-02-06T10:37:50.073Z,48.05
2019-02-06T10:40:19.451Z,46.96
2019-02-06T10:42:48.114Z,46.60
2019-02-06T10:45:21.075Z,46.22
2019-02-06T10:47:49.517Z,45.31
2019-02-06T10:50:23.772Z,45.94
2019-02-06T10:52:52.493Z,46.49
2019-02-06T10:55:21.169Z,46.68
2019-02-06T10:57:49.914Z,46.23
2019-02-06T11:00:21.812Z,45.78
2019-02-06T11:02:50.592Z,46.09
2019-02-06T11:05:19.471Z,46.09
2019-02-06T11:07:48.134Z,46.04
2019-02-06T11:10:19.793Z,45.98
2019-02-06T11:12:48.511Z,45.74
2019-02-06T11:15:17.253Z,45.12
2019-02-06T11:17:45.912Z,44.87
2019-02-06T11:20:20.417Z,44.57
2019-02-06T11:22:49.132Z,44.53
2019-02-06T11:25:17.813Z,44.81
2019-02-06T11:30:44.773Z,45.22
2019-02-06T11:33:13.471Z,45.59
2019-02-06T11:35:42.153Z,44.94
2019-02-06T11:38:10.827Z,45.40
2019-02-06T11:40:39.591Z,46.25
2019-02-06T11:43:08.513Z,46.17
2019-02-06T11:45:37.392Z,46.46
2019-02-06T11:48:06.313Z,46.56
2019-02-06T11:50:37.450Z,47.38
2019-02-06T11:53:07.331Z,47.28
2019-02-06T11:55:36.033Z,48.13
2019-02-06T11:58:05.513Z,47.56
2019-02-06T12:00:52.112Z,47.25
2019-02-06T12:03:22.238Z,47.04
2019-02-06T12:05:51.152Z,46.29
2019-02-06T12:08:19.873Z,44.59
2019-02-06T12:10:48.794Z,44.66
2019-02-06T12:13:17.432Z,45.37
2019-02-06T12:15:46.124Z,46.42
2019-02-06T12:18:14.815Z,46.13
2019-02-06T12:20:43.531Z,46.82
2019-02-06T12:23:12.183Z,47.33
2019-02-06T12:25:40.913Z,47.35
2019-02-06T12:28:09.551Z,47.61
2019-02-06T12:30:41.915Z,46.47
2019-02-06T12:33:10.670Z,46.28
2019-02-06T12:35:39.312Z,46.35
2019-02-06T12:38:08.032Z,46.53
2019-02-06T12:40:36.770Z,46.54
2019-02-06T12:43:07.076Z,46.28
2019-02-06T12:45:37.311Z,48.34
2019-02-06T12:48:06.213Z,47.21
2019-02-06T12:50:34.933Z,47.47
2019-02-06T12:53:03.591Z,46.00
2019-02-06T12:55:34.992Z,46.10
2019-02-06T12:58:03.634Z,45.18
2019-02-06T13:00:37.433Z,44.67
2019-02-06T13:03:06.331Z,44.81
2019-02-06T13:05:35.030Z,44.98
2019-02-06T13:08:03.791Z,46.31
2019-02-06T13:10:34.264Z,45.01
2019-02-06T13:13:02.854Z,43.11
2019-02-06T13:15:32.012Z,41.38
2019-02-06T13:18:00.652Z,41.43
2019-02-06T13:20:36.536Z,39.81
2019-02-06T13:23:06.279Z,39.44
2019-02-06T13:25:35.036Z,38.13
2019-02-06T13:28:03.852Z,40.53
2019-02-06T13:30:36.014Z,41.59
2019-02-06T13:33:05.971Z,42.58
2019-02-06T13:35:34.672Z,43.42
2019-02-06T13:38:03.390Z,42.35
2019-02-06T13:40:32.161Z,41.50
2019-02-06T13:43:00.892Z,39.89
2019-02-06T13:45:41.852Z,39.52
2019-02-06T13:48:10.532Z,39.75
2019-02-06T13:50:39.332Z,39.62
2019-02-06T13:53:08.050Z,39.37
2019-02-06T13:55:36.792Z,40.07
2019-02-06T13:58:05.933Z,38.69
2019-02-06T14:00:39.561Z,39.18
2019-02-06T14:03:08.291Z,38.63
2019-02-06T14:05:37.050Z,38.97
2019-02-06T14:08:08.511Z,38.22
2019-02-06T14:10:37.152Z,38.14
2019-02-06T14:13:06.133Z,39.14
2019-02-06T14:15:37.431Z,40.01
2019-02-06T14:18:06.092Z,39.74
2019-02-06T14:20:34.758Z,41.02
2019-02-06T14:23:06.891Z,40.92
2019-02-06T14:25:41.831Z,41.16
2019-02-06T14:28:31.531Z,42.02
2019-02-06T14:31:09.252Z,41.72
2019-02-06T14:33:55.990Z,40.87
2019-02-06T14:36:36.633Z,40.17
2019-02-06T14:39:24.994Z,39.55
2019-02-06T14:42:19.361Z,39.76
2019-02-06T14:44:52.609Z,39.60
2019-02-06T14:47:27.373Z,40.23
2019-02-06T14:50:02.073Z,41.54
2019-02-06T14:52:36.591Z,42.02
2019-02-06T14:55:34.111Z,42.32
2019-02-06T14:58:05.872Z,41.85
2019-02-06T15:00:59.926Z,41.95
2019-02-06T15:03:47.025Z,43.05
2019-02-06T15:06:40.029Z,42.93
2019-02-06T15:09:14.959Z,43.37
2019-02-06T15:11:55.736Z,42.98
2019-02-06T15:14:30.529Z,43.04
2019-02-06T15:17:37.012Z,43.02
2019-02-06T15:20:14.792Z,43.31
2019-02-06T15:22:52.450Z,43.83
2019-02-06T15:25:36.312Z,45.38
2019-02-06T15:28:26.274Z,46.22
2019-02-06T15:31:29.671Z,46.41
2019-02-06T15:34:15.535Z,47.36
2019-02-06T15:36:52.731Z,48.11
2019-02-06T15:39:48.711Z,48.45
2019-02-06T15:42:26.411Z,48.83
2019-02-06T15:45:07.305Z,50.01
2019-02-06T15:47:45.375Z,50.02
2019-02-06T15:50:29.341Z,50.02
2019-02-06T15:53:02.091Z,50.52
2019-02-06T15:55:43.813Z,50.90
2019-02-06T15:58:27.711Z,51.56
2019-02-06T16:01:11.769Z,51.77
2019-02-06T16:04:04.551Z,52.14
2019-02-06T16:06:36.972Z,52.33
2019-02-06T16:09:14.751Z,53.12
2019-02-06T16:11:46.671Z,53.05
2019-02-06T16:14:24.371Z,53.67
2019-02-06T16:17:23.454Z,53.61
2019-02-06T16:20:17.272Z,53.98
2019-02-06T16:23:12.091Z,53.92
2019-02-06T16:26:06.690Z,53.71
2019-02-06T16:28:41.374Z,54.08
2019-02-06T16:31:22.492Z,54.17
2019-02-06T16:34:03.208Z,54.38
2019-02-06T16:36:50.351Z,54.20
2019-02-06T16:39:27.831Z,54.22
2019-02-06T16:42:05.532Z,54.17
2019-02-06T16:44:37.567Z,54.40
2019-02-06T16:47:21.351Z,54.52
2019-02-06T16:50:16.008Z,54.38
2019-02-06T16:53:04.410Z,54.82
2019-02-06T16:55:52.915Z,54.69
2019-02-06T16:58:30.651Z,54.51
2019-02-06T17:01:11.532Z,54.82
2019-02-06T17:03:58.332Z,54.79
2019-02-06T17:06:38.912Z,54.78
2019-02-06T17:09:41.019Z,54.82
2019-02-06T17:12:22.090Z,54.96
2019-02-06T17:15:23.710Z,55.03
2019-02-06T17:18:04.131Z,54.90
2019-02-06T17:20:44.790Z,54.97
2019-02-06T17:23:28.772Z,55.24
2019-02-06T17:26:04.384Z,55.34
2019-02-06T17:28:36.319Z,55.50
2019-02-06T17:31:10.934Z,55.44
2019-02-06T17:34:01.491Z,55.40
2019-02-06T17:36:48.012Z,55.48
2019-02-06T17:39:29.236Z,55.60
2019-02-06T17:42:01.171Z,55.92
2019-02-06T17:44:54.373Z,55.75
2019-02-06T17:47:38.411Z,55.88
2019-02-06T17:50:15.831Z,56.13
2019-02-06T17:53:08.550Z,55.54
2019-02-06T17:55:37.431Z,55.85
2019-02-06T17:58:06.692Z,55.94
2019-02-06T18:00:51.071Z,55.95
2019-02-06T18:03:20.050Z,56.10
2019-02-06T18:05:49.470Z,56.32
2019-02-06T18:08:18.452Z,56.43
2019-02-06T18:10:47.411Z,56.12
2019-02-06T18:13:17.192Z,56.35
2019-02-06T18:15:46.020Z,56.27
2019-02-06T18:18:14.973Z,56.26
2019-02-06T18:20:44.212Z,56.23
2019-02-06T18:23:13.194Z,56.10
2019-02-06T18:25:42.213Z,56.30
2019-02-06T18:28:11.933Z,56.36
2019-02-06T18:30:40.930Z,56.31
2019-02-06T18:33:09.930Z,56.22
2019-02-06T18:35:39.672Z,56.17
2019-02-06T18:38:08.892Z,55.88
2019-02-06T18:40:38.831Z,56.12
2019-02-06T18:43:07.812Z,55.95
2019-02-06T18:45:37.074Z,56.01
2019-02-06T18:48:08.459Z,55.98
2019-02-06T18:50:38.932Z,56.16
2019-02-06T18:53:08.790Z,56.29
2019-02-06T18:55:38.368Z,56.39
2019-02-06T18:58:08.592Z,57.51
2019-02-06T19:00:39.767Z,56.35
2019-02-06T19:03:26.522Z,55.96
2019-02-06T19:05:54.259Z,56.15
2019-02-06T19:08:23.384Z,56.39
2019-02-06T19:10:54.131Z,56.16
2019-02-06T19:13:23.154Z,56.16
2019-02-06T19:15:56.512Z,56.12
2019-02-06T19:18:23.611Z,56.40
2019-02-06T19:20:52.547Z,56.30
2019-02-06T19:23:21.410Z,56.68
2019-02-06T19:25:50.451Z,56.26
2019-02-06T19:28:19.651Z,56.31
2019-02-06T19:30:48.456Z,56.39
2019-02-06T19:33:17.574Z,56.54
2019-02-06T19:35:46.551Z,56.71
2019-02-06T19:38:17.184Z,56.57
2019-02-06T19:40:46.269Z,56.57
2019-02-06T19:43:15.433Z,56.40
2019-02-06T19:45:44.531Z,56.35
2019-02-06T19:48:16.203Z,56.44
2019-02-06T19:50:46.463Z,56.81
2019-02-06T19:53:15.635Z,56.66
2019-02-06T19:55:44.813Z,56.88
2019-02-06T19:58:13.934Z,57.00
2019-02-06T20:00:43.014Z,56.85
2019-02-06T20:03:12.352Z,56.89
2019-02-06T20:05:41.352Z,57.00
2019-02-06T20:08:10.492Z,57.12
2019-02-06T20:10:48.430Z,57.11
2019-02-06T20:13:17.571Z,57.14
2019-02-06T20:15:46.772Z,56.92
2019-02-06T20:18:16.194Z,57.27
2019-02-06T20:20:45.191Z,57.03
2019-02-06T20:23:14.104Z,56.89
2019-02-06T20:25:43.024Z,56.87
2019-02-06T20:28:11.973Z,57.01
2019-02-06T20:30:41.075Z,56.98
2019-02-06T20:33:10.191Z,57.00
2019-02-06T20:35:39.395Z,57.23
2019-02-06T20:38:08.332Z,57.46
2019-02-06T20:40:42.873Z,57.47
2019-02-06T20:43:21.855Z,57.47
2019-02-06T20:45:43.190Z,57.39
2019-02-06T20:48:12.390Z,57.61
2019-02-06T20:50:41.947Z,58.02
2019-02-06T20:53:11.305Z,57.79
2019-02-06T20:55:40.494Z,58.01
2019-02-06T20:58:09.606Z,58.12
2019-02-06T21:00:40.552Z,58.20
2019-02-06T21:03:09.530Z,58.07
2019-02-06T21:05:38.653Z,58.27
2019-02-06T21:08:07.515Z,58.54
2019-02-06T21:10:36.992Z,58.42
2019-02-06T21:13:06.572Z,58.46
2019-02-06T21:15:35.692Z,58.56
2019-02-06T21:18:04.626Z,58.42
2019-02-06T21:20:33.614Z,58.64
2019-02-06T21:23:02.801Z,58.56
2019-02-06T21:25:31.812Z,58.62
2019-02-06T21:28:00.550Z,58.52
2019-02-06T21:30:35.051Z,58.50
2019-02-06T21:33:03.932Z,58.57
2019-02-06T21:35:32.911Z,58.59
2019-02-06T21:38:01.874Z,58.72
2019-02-06T21:40:37.693Z,58.45
2019-02-06T21:43:07.360Z,58.65
2019-02-06T21:45:36.094Z,58.65
2019-02-06T21:48:05.577Z,58.71
2019-02-06T21:50:34.450Z,59.00
2019-02-06T21:53:03.437Z,58.92
2019-02-06T21:55:32.472Z,58.88
2019-02-06T21:58:01.351Z,59.08
2019-02-06T22:00:38.671Z,59.07
2019-02-06T22:03:10.543Z,58.95
2019-02-06T22:05:38.233Z,58.93
2019-02-06T22:08:07.153Z,59.26
2019-02-06T22:10:35.894Z,58.93
2019-02-06T22:13:04.853Z,59.08
2019-02-06T22:15:33.716Z,59.05
2019-02-06T22:18:02.472Z,59.26
2019-02-06T22:20:31.253Z,59.18
2019-02-06T22:22:59.990Z,59.36
2019-02-06T22:25:28.772Z,59.47
2019-02-06T22:27:57.499Z,59.53
2019-02-06T22:30:28.878Z,59.49
2019-02-06T22:32:57.551Z,59.63
2019-02-06T22:35:26.511Z,59.62
2019-02-06T22:37:55.232Z,59.61
2019-02-06T22:40:26.531Z,59.64
2019-02-06T22:42:55.272Z,60.00
2019-02-06T22:45:25.810Z,60.14
2019-02-06T22:47:54.572Z,60.27
2019-02-06T22:50:25.971Z,60.56
2019-02-06T22:52:54.752Z,60.28
2019-02-06T22:55:23.430Z,60.39
2019-02-06T22:57:52.190Z,60.54
2019-02-06T23:00:43.533Z,60.53
2019-02-06T23:03:12.312Z,60.86
2019-02-06T23:05:41.010Z,61.01
2019-02-06T23:08:09.732Z,60.91
2019-02-06T23:10:38.459Z,60.97
2019-02-06T23:13:07.630Z,60.61
2019-02-06T23:15:36.791Z,60.59
2019-02-06T23:18:05.650Z,60.67
2019-02-06T23:20:34.374Z,60.69
2019-02-06T23:23:03.131Z,60.58
2019-02-06T23:25:31.891Z,60.71
2019-02-06T23:28:00.535Z,60.75
2019-02-06T23:30:29.692Z,60.55
2019-02-06T23:32:58.392Z,60.86
2019-02-06T23:35:27.097Z,60.72
2019-02-06T23:37:55.854Z,60.74
2019-02-06T23:40:24.533Z,60.84
2019-02-06T23:42:53.311Z,60.84
2019-02-06T23:45:22.432Z,60.99
2019-02-06T23:47:51.133Z,61.09
2019-02-06T23:50:19.779Z,60.71
2019-02-06T23:52:48.533Z,60.77
2019-02-06T23:55:17.272Z,60.79
2019-02-06T23:57:45.994Z,60.89
